Time;durP1;ratioP1;P1;durP2;ratioP2;P2;SDS_P1;SDS_P2;PMS_P1;PMS_P2;Temp;Humidity;BMP_temperature;BMP_pressure;BME280_temperature;BME280_humidity;BME280_pressure;Samples;Min_cycle;Max_cycle;Signal;HPM_P1;HPM_P2
2022/03/28 00:01:05;;;;;;;7.93;5.40;;;13.90;90.70;;;;;;5038036;28;20494;-68
2022/03/28 00:03:30;;;;;;;7.40;6.23;;;13.90;90.50;;;;;;5014636;28;20283;-68
2022/03/28 00:05:56;;;;;;;8.33;6.10;;;13.80;90.50;;;;;;5031109;28;20240;-68
2022/03/28 00:08:22;;;;;;;8.23;5.93;;;13.80;90.60;;;;;;5014219;28;20248;-68
2022/03/28 00:10:48;;;;;;;7.10;5.53;;;13.80;90.70;;;;;;5042654;28;20341;-67
2022/03/28 00:13:14;;;;;;;10.13;6.53;;;13.80;90.70;;;;;;5031758;28;20223;-68
2022/03/28 00:15:39;;;;;;;7.83;6.13;;;13.70;90.50;;;;;;5022743;28;20233;-67
2022/03/28 00:18:07;;;;;;;8.20;6.10;;;13.70;90.60;;;;;;5037482;28;21057;-68
2022/03/28 00:20:33;;;;;;;7.70;5.90;;;13.70;90.50;;;;;;5028074;28;20220;-67
2022/03/28 00:22:58;;;;;;;7.33;6.00;;;13.70;90.70;;;;;;5037932;28;20463;-67
2022/03/28 00:25:24;;;;;;;7.57;6.23;;;13.60;90.60;;;;;;5031920;28;20221;-69
2022/03/28 00:27:50;;;;;;;7.50;5.33;;;13.60;90.50;;;;;;5033635;28;20216;-69
2022/03/28 00:30:15;;;;;;;10.77;6.63;;;13.60;90.50;;;;;;5033321;28;20212;-67
2022/03/28 00:32:43;;;;;;;7.20;6.00;;;13.50;90.40;;;;;;5026906;28;20224;-68
2022/03/28 00:35:09;;;;;;;7.60;6.30;;;13.50;90.50;;;;;;5046541;28;20459;-68
2022/03/28 00:37:37;;;;;;;7.90;5.90;;;13.50;90.50;;;;;;5020259;28;20214;-68
2022/03/28 00:40:05;;;;;;;9.47;6.97;;;13.30;90.60;;;;;;5051135;28;20220;-67
2022/03/28 00:42:31;;;;;;;9.70;6.33;;;13.30;90.70;;;;;;5037265;28;20456;-69
2022/03/28 00:44:57;;;;;;;9.20;6.23;;;13.30;90.70;;;;;;5032670;28;20454;-68
2022/03/28 00:47:22;;;;;;;8.80;6.67;;;13.30;90.60;;;;;;5034575;28;20225;-69
2022/03/28 00:49:48;;;;;;;9.77;7.37;;;13.30;90.60;;;;;;5038002;28;20216;-68
2022/03/28 00:52:15;;;;;;;8.90;6.33;;;13.30;90.50;;;;;;5021652;28;20296;-66
2022/03/28 00:54:40;;;;;;;7.73;5.77;;;13.20;90.50;;;;;;5030152;28;20512;-68
2022/03/28 00:57:06;;;;;;;13.63;7.20;;;13.10;90.70;;;;;;5035545;28;20440;-67
2022/03/28 00:59:32;;;;;;;8.30;6.20;;;13.10;90.60;;;;;;5038683;28;20749;-67
2022/03/28 01:01:59;;;;;;;8.77;6.60;;;13.10;90.50;;;;;;5012854;28;20463;-69
2022/03/28 01:04:25;;;;;;;11.20;6.37;;;13.10;90.60;;;;;;5031386;28;20229;-69
2022/03/28 01:06:52;;;;;;;9.47;6.97;;;13.10;90.70;;;;;;5037182;28;20502;-68
2022/03/28 01:09:18;;;;;;;11.23;7.40;;;13.10;90.60;;;;;;5028486;28;20217;-70
2022/03/28 01:11:45;;;;;;;8.17;6.20;;;13.00;90.50;;;;;;5028440;28;21022;-67
2022/03/28 01:14:11;;;;;;;7.43;6.27;;;13.00;90.50;;;;;;5038049;28;20474;-67
2022/03/28 01:18:05;;;;;;;10.50;6.67;;;13.00;90.50;;;;;;5033188;28;20828;-68
2022/03/28 01:19:26;;;;;;;7.30;5.53;;;12.90;90.40;;;;;;5035622;28;20220;-67
2022/03/28 01:21:52;;;;;;;9.63;7.40;;;12.90;90.50;;;;;;5013494;28;20521;-68
2022/03/28 01:24:18;;;;;;;9.13;6.67;;;12.90;90.50;;;;;;5034258;28;20495;-67
2022/03/28 01:26:45;;;;;;;9.63;6.30;;;12.80;90.40;;;;;;5029537;28;20447;-68
2022/03/28 01:29:14;;;;;;;7.33;5.80;;;12.80;90.40;;;;;;5021269;28;20874;-67
2022/03/28 01:31:40;;;;;;;9.13;6.60;;;12.80;90.40;;;;;;5044935;28;20462;-68
2022/03/28 01:34:14;;;;;;;10.37;6.97;;;12.80;90.50;;;;;;5017385;28;20448;-68
2022/03/28 01:36:40;;;;;;;9.03;6.00;;;12.70;90.40;;;;;;5019315;28;20471;-69
2022/03/28 01:39:06;;;;;;;8.97;6.50;;;12.70;90.30;;;;;;5032318;28;20553;-66
2022/03/28 01:41:31;;;;;;;9.23;6.40;;;12.60;90.30;;;;;;5045617;28;20219;-68
2022/03/28 01:43:57;;;;;;;8.80;6.50;;;12.60;90.40;;;;;;5028262;28;20223;-68
2022/03/28 01:46:23;;;;;;;10.50;6.60;;;12.60;90.40;;;;;;5038541;28;20252;-69
2022/03/28 01:48:48;;;;;;;9.20;6.57;;;12.60;90.40;;;;;;5045107;28;20285;-67
2022/03/28 01:51:14;;;;;;;9.07;5.80;;;12.50;90.50;;;;;;5033825;28;20224;-69
2022/03/28 01:53:39;;;;;;;10.20;6.43;;;12.50;90.50;;;;;;5026216;28;20229;-68
2022/03/28 01:56:05;;;;;;;7.57;5.87;;;12.50;90.50;;;;;;5012493;28;20235;-67
2022/03/28 01:58:31;;;;;;;7.27;5.50;;;12.30;90.80;;;;;;5041868;28;20227;-68
2022/03/28 02:00:56;;;;;;;9.33;6.60;;;12.20;90.90;;;;;;5030185;28;20225;-70
2022/03/28 02:03:22;;;;;;;10.63;6.80;;;12.20;91.00;;;;;;5029371;28;20281;-68
2022/03/28 02:05:48;;;;;;;11.43;7.40;;;12.20;90.90;;;;;;5052544;28;20214;-67
2022/03/28 02:08:13;;;;;;;11.77;7.23;;;12.30;90.80;;;;;;5049931;28;20251;-69
2022/03/28 02:10:39;;;;;;;9.60;7.83;;;12.20;90.80;;;;;;5039877;28;20224;-69
2022/03/28 02:13:05;;;;;;;10.70;7.80;;;12.20;90.70;;;;;;5043387;28;20216;-67
2022/03/28 02:15:30;;;;;;;12.17;7.00;;;12.20;90.80;;;;;;5023015;28;20597;-66
2022/03/28 02:17:57;;;;;;;11.60;7.40;;;12.20;90.80;;;;;;5014609;28;20233;-68
2022/03/28 02:20:23;;;;;;;9.60;7.43;;;12.20;90.70;;;;;;5045563;28;20251;-66
2022/03/28 02:22:49;;;;;;;8.53;5.80;;;12.20;90.70;;;;;;5010092;28;20480;-67
2022/03/28 02:25:17;;;;;;;9.57;6.90;;;12.10;90.80;;;;;;5028359;28;20243;-68
2022/03/28 02:27:44;;;;;;;10.40;7.20;;;12.10;90.80;;;;;;5038198;28;20228;-67
2022/03/28 02:30:12;;;;;;;10.03;7.30;;;12.00;90.80;;;;;;5047357;28;20438;-69
2022/03/28 02:32:37;;;;;;;15.63;7.80;;;11.90;90.90;;;;;;5048015;28;20535;-66
2022/03/28 02:35:05;;;;;;;11.43;7.23;;;11.90;91.10;;;;;;5028136;28;20463;-67
2022/03/28 02:37:30;;;;;;;11.03;7.40;;;11.90;91.00;;;;;;5032932;28;20225;-68
2022/03/28 02:39:56;;;;;;;11.10;7.50;;;11.90;90.90;;;;;;5030271;28;20451;-68
2022/03/28 02:42:22;;;;;;;10.43;7.27;;;12.00;91.00;;;;;;5031480;28;20216;-68
2022/03/28 02:44:51;;;;;;;11.33;7.60;;;12.00;91.00;;;;;;5022702;28;20221;-66
2022/03/28 02:47:21;;;;;;;11.03;7.97;;;11.90;90.90;;;;;;5044171;28;20541;-69
2022/03/28 02:49:47;;;;;;;9.83;7.43;;;11.90;90.80;;;;;;5046110;28;20450;-70
2022/03/28 02:52:13;;;;;;;10.07;7.70;;;11.90;90.90;;;;;;5033282;28;20454;-72
2022/03/28 02:54:39;;;;;;;9.70;7.47;;;11.80;90.80;;;;;;5030582;28;20460;-70
2022/03/28 02:57:05;;;;;;;13.50;7.77;;;11.80;90.80;;;;;;5035898;28;20314;-72
2022/03/28 02:59:30;;;;;;;14.23;8.23;;;11.80;90.90;;;;;;5063174;28;20242;-70
2022/03/28 03:01:56;;;;;;;10.33;7.83;;;11.70;90.80;;;;;;5038667;28;20744;-72
2022/03/28 03:04:21;;;;;;;11.10;7.30;;;11.70;90.80;;;;;;5031298;28;20228;-71
2022/03/28 03:06:47;;;;;;;9.63;7.07;;;11.70;90.80;;;;;;5038091;28;20209;-68
2022/03/28 03:09:13;;;;;;;10.97;7.20;;;11.70;90.70;;;;;;5048130;28;20223;-71
2022/03/28 03:11:40;;;;;;;9.63;6.97;;;11.70;90.80;;;;;;5041658;28;20718;-72
2022/03/28 03:14:06;;;;;;;10.47;7.30;;;11.60;90.80;;;;;;5029827;28;20225;-71
2022/03/28 03:16:32;;;;;;;9.87;7.17;;;11.60;90.80;;;;;;5038193;28;20459;-70
2022/03/28 03:18:58;;;;;;;11.33;7.00;;;11.60;90.90;;;;;;5031720;28;20456;-71
2022/03/28 03:21:23;;;;;;;9.33;7.00;;;11.60;90.90;;;;;;5027509;28;20480;-69
2022/03/28 03:23:49;;;;;;;8.80;6.70;;;11.60;90.90;;;;;;5014891;28;20224;-70
2022/03/28 03:26:15;;;;;;;10.63;6.97;;;11.50;90.90;;;;;;5019631;28;20225;-71
2022/03/28 03:28:41;;;;;;;8.93;6.43;;;11.50;90.80;;;;;;5048999;28;20271;-71
2022/03/28 03:31:06;;;;;;;9.07;6.47;;;11.50;90.90;;;;;;5015452;28;20279;-72
2022/03/28 03:33:32;;;;;;;10.27;7.40;;;11.50;91.00;;;;;;5033683;28;20299;-70
2022/03/28 03:36:00;;;;;;;11.70;8.30;;;11.50;91.20;;;;;;5033084;28;20262;-72
2022/03/28 03:38:26;;;;;;;10.27;6.47;;;11.40;90.90;;;;;;5031408;28;20455;-70
2022/03/28 03:40:53;;;;;;;12.10;8.03;;;11.40;90.80;;;;;;5033964;28;20452;-72
2022/03/28 03:43:18;;;;;;;12.30;7.33;;;11.30;90.80;;;;;;5028034;28;21113;-69
2022/03/28 03:45:44;;;;;;;7.33;5.60;;;11.30;90.70;;;;;;5045332;28;20451;-70
2022/03/28 03:48:10;;;;;;;11.10;8.07;;;11.30;90.70;;;;;;5027366;28;20689;-69
2022/03/28 03:50:36;;;;;;;11.87;7.87;;;11.30;90.70;;;;;;5027469;28;20255;-70
2022/03/28 03:53:01;;;;;;;9.67;6.60;;;11.30;90.80;;;;;;5042968;28;20223;-73
2022/03/28 03:55:27;;;;;;;8.67;6.83;;;11.20;90.80;;;;;;5036402;28;20486;-70
2022/03/28 03:57:52;;;;;;;8.80;6.60;;;11.20;90.80;;;;;;5030387;28;20224;-71
2022/03/28 04:00:18;;;;;;;13.10;6.80;;;11.20;90.80;;;;;;5039525;28;20663;-72
2022/03/28 04:02:44;;;;;;;8.83;6.90;;;11.20;90.80;;;;;;5031296;28;20212;-71
2022/03/28 04:05:10;;;;;;;9.70;6.30;;;11.20;90.80;;;;;;5028592;28;20213;-72
2022/03/28 04:07:36;;;;;;;8.90;6.57;;;11.10;90.80;;;;;;5031372;28;20220;-70
2022/03/28 04:10:02;;;;;;;13.03;7.27;;;11.10;90.80;;;;;;5040369;28;20455;-71
2022/03/28 04:12:28;;;;;;;8.10;6.40;;;11.10;90.80;;;;;;5029375;28;20292;-71
2022/03/28 04:14:58;;;;;;;8.37;5.50;;;11.00;90.90;;;;;;5023027;28;20452;-70
2022/03/28 04:17:24;;;;;;;7.47;6.70;;;11.00;90.90;;;;;;5042359;28;20216;-69
2022/03/28 04:19:49;;;;;;;9.90;6.80;;;10.90;90.90;;;;;;5039343;28;20466;-71
2022/03/28 04:22:15;;;;;;;11.07;6.43;;;10.90;90.90;;;;;;5045050;28;20473;-71
2022/03/28 04:24:41;;;;;;;9.30;6.83;;;10.90;90.90;;;;;;5026943;28;20225;-72
2022/03/28 04:27:06;;;;;;;10.63;7.27;;;10.90;91.20;;;;;;5039625;28;20224;-71
2022/03/28 04:29:32;;;;;;;9.50;6.47;;;10.90;90.80;;;;;;5040495;28;20216;-71
2022/03/28 04:31:58;;;;;;;10.33;6.87;;;10.90;90.90;;;;;;5039335;28;20213;-71
2022/03/28 04:34:23;;;;;;;12.17;7.37;;;10.90;90.90;;;;;;5016318;28;20225;-69
2022/03/28 04:36:49;;;;;;;8.63;6.57;;;10.90;90.90;;;;;;5007517;28;20233;-69
2022/03/28 04:39:15;;;;;;;10.03;7.00;;;10.90;90.90;;;;;;5035843;28;20611;-71
2022/03/28 04:41:40;;;;;;;9.07;6.60;;;10.80;90.90;;;;;;5032261;28;20219;-71
2022/03/28 04:44:06;;;;;;;11.60;7.50;;;10.80;91.00;;;;;;5033060;28;20223;-69
2022/03/28 04:46:32;;;;;;;10.30;6.43;;;10.80;90.90;;;;;;5029532;28;20274;-69
2022/03/28 04:48:58;;;;;;;11.50;7.37;;;10.80;90.90;;;;;;5027560;28;20236;-72
2022/03/28 04:51:24;;;;;;;11.97;7.97;;;10.70;91.30;;;;;;5025408;28;20622;-69
2022/03/28 04:53:50;;;;;;;11.67;6.80;;;10.70;91.00;;;;;;5041176;28;20465;-71
2022/03/28 04:56:15;;;;;;;10.07;8.53;;;10.70;91.00;;;;;;5033687;28;20443;-70
2022/03/28 04:58:42;;;;;;;11.10;8.03;;;10.60;91.00;;;;;;5036760;28;20212;-72
2022/03/28 05:01:08;;;;;;;12.53;7.10;;;10.60;91.00;;;;;;5016787;28;20221;-71
2022/03/28 05:03:34;;;;;;;11.97;7.30;;;10.60;91.00;;;;;;5031063;28;20496;-71
2022/03/28 05:06:00;;;;;;;11.83;8.00;;;10.60;91.00;;;;;;5037344;28;20840;-71
2022/03/28 05:08:25;;;;;;;12.10;7.83;;;10.60;91.00;;;;;;5009839;28;20455;-71
2022/03/28 05:10:51;;;;;;;9.23;7.23;;;10.60;91.00;;;;;;5018714;28;20216;-71
2022/03/28 05:13:17;;;;;;;13.07;8.20;;;10.60;91.10;;;;;;5019548;28;20280;-71
2022/03/28 05:15:42;;;;;;;14.47;8.10;;;10.50;91.10;;;;;;5033540;28;20290;-70
2022/03/28 05:18:08;;;;;;;12.83;7.40;;;10.50;91.20;;;;;;5019011;28;20230;-72
2022/03/28 05:20:34;;;;;;;12.97;8.80;;;10.40;91.20;;;;;;5048847;28;20224;-72
2022/03/28 05:22:59;;;;;;;10.00;7.10;;;10.40;91.20;;;;;;5037517;28;20225;-71
2022/03/28 05:25:25;;;;;;;11.37;8.20;;;10.40;91.10;;;;;;5028599;28;20238;-70
2022/03/28 05:27:51;;;;;;;13.20;7.87;;;10.40;91.20;;;;;;5031160;28;20241;-71
2022/03/28 05:30:17;;;;;;;13.77;8.13;;;10.40;91.30;;;;;;5032686;28;20227;-70
2022/03/28 05:32:43;;;;;;;13.90;7.90;;;10.30;91.20;;;;;;5028577;28;20485;-71
2022/03/28 05:35:10;;;;;;;8.97;6.67;;;10.40;91.20;;;;;;5024248;28;20446;-71
2022/03/28 05:37:36;;;;;;;11.13;8.30;;;10.30;91.20;;;;;;5028945;28;20220;-70
2022/03/28 05:40:04;;;;;;;13.13;7.83;;;10.30;91.10;;;;;;5024783;28;20512;-70
2022/03/28 05:42:30;;;;;;;9.57;7.77;;;10.20;91.70;;;;;;5014434;28;20456;-71
2022/03/28 05:44:55;;;;;;;11.60;7.50;;;10.00;91.80;;;;;;5032189;28;20470;-70
2022/03/28 05:47:21;;;;;;;14.07;7.93;;;10.10;91.70;;;;;;5024359;28;20225;-72
2022/03/28 05:49:47;;;;;;;11.87;7.43;;;10.10;91.70;;;;;;5036090;28;20281;-71
2022/03/28 05:52:12;;;;;;;12.73;8.43;;;10.20;91.70;;;;;;5033334;28;20753;-72
2022/03/28 05:54:38;;;;;;;11.90;7.57;;;10.10;91.80;;;;;;5031703;28;20220;-72
2022/03/28 05:57:05;;;;;;;11.90;7.13;;;10.10;91.70;;;;;;5030955;28;20617;-70
2022/03/28 05:59:31;;;;;;;13.50;7.97;;;10.10;91.80;;;;;;5020294;28;20230;-69
2022/03/28 06:01:57;;;;;;;17.03;6.70;;;10.10;92.00;;;;;;5025532;28;20463;-72
2022/03/28 06:04:23;;;;;;;15.80;8.07;;;10.10;92.10;;;;;;5027508;28;20829;-73
2022/03/28 06:06:49;;;;;;;9.03;6.70;;;10.10;92.00;;;;;;5027336;28;20228;-70
2022/03/28 06:09:14;;;;;;;14.30;8.80;;;10.10;92.00;;;;;;5024715;28;20231;-71
2022/03/28 06:11:40;;;;;;;14.50;10.20;;;10.10;91.90;;;;;;5039279;28;20231;-72
2022/03/28 06:14:06;;;;;;;18.90;11.67;;;10.10;91.90;;;;;;5027061;28;20992;-71
2022/03/28 06:16:31;;;;;;;16.57;10.70;;;10.10;92.20;;;;;;5012416;28;20232;-69
2022/03/28 06:18:57;;;;;;;15.73;9.90;;;10.10;92.10;;;;;;5032768;28;20698;-71
2022/03/28 06:21:23;;;;;;;12.93;8.03;;;10.10;92.20;;;;;;5048657;28;20220;-71
2022/03/28 06:23:49;;;;;;;10.63;8.30;;;10.10;92.20;;;;;;5028413;28;20331;-70
2022/03/28 06:26:17;;;;;;;15.27;8.30;;;10.20;92.30;;;;;;5027742;28;20216;-71
2022/03/28 06:28:44;;;;;;;14.80;9.07;;;10.10;92.30;;;;;;5024771;28;20498;-73
2022/03/28 06:31:10;;;;;;;12.60;7.67;;;10.20;92.20;;;;;;5023809;28;20534;-72
2022/03/28 06:33:35;;;;;;;10.80;7.87;;;10.20;92.10;;;;;;5027256;28;20542;-71
2022/03/28 06:36:03;;;;;;;11.33;8.20;;;10.20;92.20;;;;;;5023241;28;20260;-70
2022/03/28 06:38:28;;;;;;;15.37;8.27;;;10.20;92.70;;;;;;5027105;28;20235;-71
2022/03/28 06:40:54;;;;;;;14.40;9.20;;;10.20;92.40;;;;;;5025178;28;20550;-72
2022/03/28 06:43:20;;;;;;;10.60;8.03;;;10.20;92.50;;;;;;5030542;28;20232;-72
2022/03/28 06:45:46;;;;;;;17.70;8.90;;;10.20;92.70;;;;;;5034206;28;20231;-70
2022/03/28 06:48:11;;;;;;;16.77;9.57;;;10.20;92.80;;;;;;5018792;28;20537;-68
2022/03/28 06:50:37;;;;;;;13.40;8.43;;;10.30;92.70;;;;;;5037012;28;20496;-70
2022/03/28 06:53:03;;;;;;;15.60;9.97;;;10.30;92.70;;;;;;5037106;28;20229;-70
2022/03/28 06:55:29;;;;;;;18.63;9.23;;;10.30;92.90;;;;;;5026567;28;20228;-71
2022/03/28 06:57:55;;;;;;;17.30;9.43;;;10.30;93.10;;;;;;5031873;28;21145;-72
2022/03/28 07:00:20;;;;;;;12.73;9.73;;;10.30;93.10;;;;;;5021732;28;20220;-72
2022/03/28 07:02:46;;;;;;;17.67;8.83;;;10.40;93.10;;;;;;5011875;28;20239;-71
2022/03/28 07:05:12;;;;;;;12.87;8.07;;;10.40;93.40;;;;;;5027694;28;20299;-71
2022/03/28 07:07:46;;;;;;;23.53;10.67;;;10.40;93.50;;;;;;5027794;28;20215;-72
2022/03/28 07:10:18;;;;;;;10.60;7.70;;;10.50;94.00;;;;;;5036675;28;20213;-70
2022/03/28 07:12:44;;;;;;;11.47;8.30;;;10.50;93.80;;;;;;5034945;28;20465;-72
2022/03/28 07:15:11;;;;;;;11.60;9.50;;;10.60;94.00;;;;;;5032856;28;20454;-72
2022/03/28 07:18:08;;;;;;;13.87;8.47;;;10.60;94.20;;;;;;5043742;28;20473;-70
2022/03/28 07:20:34;;;;;;;11.93;8.37;;;10.70;94.20;;;;;;5020766;28;20466;-73
2022/03/28 07:23:01;;;;;;;11.50;8.13;;;10.70;94.70;;;;;;5033110;28;20581;-70
2022/03/28 07:25:28;;;;;;;12.67;8.20;;;10.80;95.10;;;;;;5026171;28;20464;-72
2022/03/28 07:27:54;;;;;;;13.00;8.20;;;10.80;94.90;;;;;;5043989;28;20473;-70
2022/03/28 07:30:21;;;;;;;11.23;8.43;;;10.90;95.20;;;;;;5035529;28;20451;-72
2022/03/28 07:32:47;;;;;;;13.23;8.60;;;10.90;95.50;;;;;;5030447;28;20463;-71
2022/03/28 07:35:14;;;;;;;10.17;8.07;;;11.00;95.50;;;;;;5031521;28;20465;-70
2022/03/28 07:37:41;;;;;;;13.63;7.77;;;11.00;95.80;;;;;;5033911;28;20606;-72
2022/03/28 07:40:08;;;;;;;9.20;7.53;;;11.10;95.80;;;;;;5051616;28;20807;-70
2022/03/28 07:42:35;;;;;;;12.07;7.53;;;11.10;95.70;;;;;;5032255;28;20964;-72
2022/03/28 07:45:02;;;;;;;9.37;7.10;;;11.20;95.90;;;;;;5024077;28;20475;-72
2022/03/28 07:47:28;;;;;;;11.50;8.00;;;11.30;96.20;;;;;;5027232;28;20447;-66
2022/03/28 07:49:55;;;;;;;12.27;8.63;;;11.40;96.60;;;;;;5032735;28;20836;-70
2022/03/28 07:52:22;;;;;;;15.77;9.13;;;11.50;96.80;;;;;;5024946;28;20220;-67
2022/03/28 07:54:48;;;;;;;13.40;8.17;;;11.50;97.00;;;;;;5015527;28;20911;-69
2022/03/28 07:57:15;;;;;;;13.30;9.03;;;11.60;97.00;;;;;;5029041;28;20448;-68
2022/03/28 07:59:43;;;;;;;9.60;7.03;;;11.70;97.30;;;;;;5029632;28;20480;-68
2022/03/28 08:02:09;;;;;;;10.33;6.90;;;11.80;97.60;;;;;;5028928;28;20455;-67
2022/03/28 08:04:36;;;;;;;9.73;7.33;;;11.90;97.60;;;;;;5028696;28;20506;-69
2022/03/28 08:07:08;;;;;;;11.60;7.40;;;11.90;97.80;;;;;;5031764;28;20471;-69
2022/03/28 08:09:35;;;;;;;11.03;8.10;;;12.00;97.80;;;;;;5012448;28;20495;-68
2022/03/28 08:12:02;;;;;;;9.60;7.17;;;12.10;98.40;;;;;;5035270;28;20455;-69
2022/03/28 08:14:28;;;;;;;11.57;7.47;;;12.20;98.60;;;;;;5037181;28;20461;-67
2022/03/28 08:16:55;;;;;;;13.07;7.80;;;12.30;98.80;;;;;;5032981;28;20443;-70
2022/03/28 08:19:22;;;;;;;10.33;6.70;;;12.40;99.40;;;;;;5028791;28;20447;-70
2022/03/28 08:21:47;;;;;;;12.23;8.03;;;12.50;99.60;;;;;;5019132;28;20448;-67
2022/03/28 08:24:13;;;;;;;11.20;7.37;;;12.70;99.80;;;;;;5041967;28;21011;-70
2022/03/28 08:26:39;;;;;;;12.03;7.90;;;12.80;99.90;;;;;;5038388;28;20807;-69
2022/03/28 08:29:05;;;;;;;11.17;8.10;;;13.00;99.90;;;;;;5044909;28;20605;-69
2022/03/28 08:31:32;;;;;;;14.50;8.77;;;13.10;99.90;;;;;;5041441;28;20239;-67
2022/03/28 08:33:57;;;;;;;11.10;7.50;;;13.20;99.90;;;;;;5033995;28;20826;-69
2022/03/28 08:36:23;;;;;;;11.17;7.50;;;13.30;99.90;;;;;;5008763;28;20444;-67
2022/03/28 08:38:49;;;;;;;11.70;7.80;;;13.40;99.90;;;;;;5023073;28;20224;-67
2022/03/28 08:41:17;;;;;;;11.00;8.13;;;13.50;99.90;;;;;;5004098;28;20219;-67
2022/03/28 08:43:43;;;;;;;13.00;8.30;;;13.70;99.90;;;;;;5030818;28;20472;-69
2022/03/28 08:46:10;;;;;;;12.87;8.87;;;13.90;99.90;;;;;;5025906;28;20452;-66
2022/03/28 08:48:40;;;;;;;10.13;7.57;;;14.00;99.90;;;;;;5029644;28;20688;-69
2022/03/28 08:51:10;;;;;;;10.80;7.23;;;14.10;99.90;;;;;;5049477;28;20506;-69
2022/03/28 08:53:37;;;;;;;9.10;6.57;;;14.20;99.90;;;;;;5036922;28;20458;-68
2022/03/28 08:56:03;;;;;;;9.80;7.33;;;14.20;99.90;;;;;;5028223;28;20891;-68
2022/03/28 08:58:29;;;;;;;12.10;7.70;;;14.30;99.90;;;;;;5029644;28;20772;-69
2022/03/28 09:00:55;;;;;;;9.17;6.80;;;14.40;99.90;;;;;;5031886;28;20986;-68
2022/03/28 09:03:41;;;;;;;12.10;7.47;;;14.50;99.90;;;;;;5014369;28;20219;-70
2022/03/28 09:06:30;;;;;;;8.87;6.70;;;14.60;99.90;;;;;;5027206;28;20223;-71
2022/03/28 09:09:18;;;;;;;9.17;6.67;;;14.70;99.90;;;;;;5030303;28;20439;-69
2022/03/28 09:11:46;;;;;;;9.73;7.10;;;14.80;99.90;;;;;;5041179;28;20525;-68
2022/03/28 09:14:29;;;;;;;7.80;6.30;;;14.90;99.90;;;;;;5035128;28;20447;-70
2022/03/28 09:17:02;;;;;;;9.00;6.63;;;15.00;99.90;;;;;;5031584;28;21085;-69
2022/03/28 09:19:48;;;;;;;9.70;7.40;;;15.20;99.90;;;;;;5026596;28;20447;-69
2022/03/28 09:22:17;;;;;;;8.83;7.10;;;15.20;99.90;;;;;;5037686;28;20453;-69
2022/03/28 09:24:45;;;;;;;11.37;6.00;;;15.30;99.90;;;;;;5030336;28;20847;-70
2022/03/28 09:27:22;;;;;;;10.30;6.63;;;15.40;99.90;;;;;;5030741;28;20825;-68
2022/03/28 09:30:08;;;;;;;8.17;5.90;;;15.50;99.90;;;;;;5050319;28;20511;-67
2022/03/28 09:32:42;;;;;;;8.33;5.70;;;15.70;99.90;;;;;;5034565;28;20463;-68
2022/03/28 09:35:19;;;;;;;13.47;10.60;;;15.80;99.90;;;;;;5026263;28;20485;-67
2022/03/28 09:37:51;;;;;;;14.70;10.47;;;15.90;99.90;;;;;;5029090;28;20466;-67
2022/03/28 09:40:30;;;;;;;19.63;13.33;;;16.00;99.90;;;;;;5025987;28;20461;-70
2022/03/28 09:42:56;;;;;;;27.87;18.17;;;16.10;99.90;;;;;;5035724;28;20462;-65
2022/03/28 09:45:25;;;;;;;40.17;25.60;;;16.20;99.90;;;;;;5020948;28;20498;-68
2022/03/28 09:48:00;;;;;;;33.37;20.90;;;16.40;99.90;;;;;;5028159;28;20502;-66
2022/03/28 09:50:30;;;;;;;22.63;14.00;;;16.40;99.70;;;;;;5034602;28;20832;-67
2022/03/28 09:52:56;;;;;;;19.50;11.83;;;16.40;99.60;;;;;;5031761;28;20483;-68
2022/03/28 09:55:21;;;;;;;14.70;9.27;;;16.50;99.90;;;;;;5012276;28;20529;-68
2022/03/28 09:57:47;;;;;;;11.00;7.20;;;16.70;99.90;;;;;;5041215;28;20216;-69
2022/03/28 10:00:18;;;;;;;13.80;9.77;;;16.90;99.80;;;;;;5028015;28;20701;-67
2022/03/28 10:02:44;;;;;;;10.83;8.13;;;17.10;99.70;;;;;;5024415;28;20304;-69
2022/03/28 10:05:11;;;;;;;8.70;7.00;;;17.30;99.60;;;;;;5025776;28;20485;-69
2022/03/28 10:07:37;;;;;;;7.00;6.30;;;17.70;98.80;;;;;;5037524;28;20462;-67
2022/03/28 10:10:04;;;;;;;9.40;6.93;;;17.70;98.60;;;;;;5022622;28;20517;-71
2022/03/28 10:12:30;;;;;;;8.90;5.40;;;17.70;98.90;;;;;;5031295;28;20556;-70
2022/03/28 10:14:57;;;;;;;6.90;5.77;;;17.80;99.00;;;;;;5018715;28;20543;-70
2022/03/28 10:17:32;;;;;;;6.40;5.20;;;17.90;98.90;;;;;;5023072;28;20233;-66
2022/03/28 10:19:59;;;;;;;7.47;5.90;;;18.00;98.50;;;;;;5031781;28;20968;-69
2022/03/28 10:22:31;;;;;;;9.20;7.37;;;18.10;98.70;;;;;;5033177;28;20454;-68
2022/03/28 10:25:09;;;;;;;9.90;6.90;;;18.10;98.40;;;;;;5032974;28;20466;-69
2022/03/28 10:27:37;;;;;;;7.33;5.70;;;18.20;98.40;;;;;;5032088;28;20541;-68
2022/03/28 10:30:11;;;;;;;6.10;5.50;;;18.30;98.40;;;;;;5031987;28;20459;-69
2022/03/28 10:32:37;;;;;;;9.60;5.50;;;18.50;98.30;;;;;;5032559;28;20528;-68
2022/03/28 10:35:07;;;;;;;6.90;5.73;;;18.70;98.00;;;;;;5029117;28;20458;-69
2022/03/28 10:37:47;;;;;;;7.00;6.17;;;18.90;97.50;;;;;;5019755;28;20463;-71
2022/03/28 10:40:24;;;;;;;8.43;5.50;;;18.90;97.70;;;;;;5048266;28;20510;-68
2022/03/28 10:43:04;;;;;;;8.73;6.40;;;19.10;97.70;;;;;;5026065;28;20459;-68
2022/03/28 10:45:42;;;;;;;6.40;5.73;;;19.20;97.40;;;;;;5033612;28;20882;-69
2022/03/28 10:48:09;;;;;;;5.90;4.90;;;19.30;97.50;;;;;;5035488;28;20503;-69
2022/03/28 10:50:36;;;;;;;5.17;4.40;;;19.30;97.20;;;;;;5034730;28;20518;-71
2022/03/28 10:53:02;;;;;;;7.13;5.60;;;19.30;97.20;;;;;;5019473;28;20455;-68
2022/03/28 10:55:43;;;;;;;6.40;5.43;;;19.60;96.60;;;;;;5034614;28;20450;-69
2022/03/28 10:58:21;;;;;;;7.43;5.40;;;19.80;95.70;;;;;;5030829;28;20315;-70
2022/03/28 11:01:05;;;;;;;5.90;5.30;;;19.90;95.70;;;;;;5012613;28;20470;-70
2022/03/28 11:03:37;;;;;;;7.60;5.20;;;19.90;95.60;;;;;;5020495;28;20478;-68
2022/03/28 11:06:04;;;;;;;8.33;5.37;;;20.00;95.50;;;;;;5038939;28;20474;-67
2022/03/28 11:08:38;;;;;;;5.73;5.20;;;20.20;94.80;;;;;;5039387;28;20477;-70
2022/03/28 11:11:27;;;;;;;6.57;5.10;;;20.40;94.90;;;;;;5041683;28;20447;-69
2022/03/28 11:13:58;;;;;;;5.20;4.70;;;20.50;94.90;;;;;;5030916;28;20493;-69
2022/03/28 11:16:51;;;;;;;5.60;4.67;;;20.60;95.00;;;;;;5030850;28;20456;-69
2022/03/28 11:19:31;;;;;;;8.20;6.30;;;20.70;94.40;;;;;;5035000;28;20513;-67
2022/03/28 11:22:08;;;;;;;6.40;5.53;;;20.70;94.30;;;;;;5026855;28;20536;-70
2022/03/28 11:24:54;;;;;;;6.50;5.37;;;20.80;93.90;;;;;;5028059;28;20459;-69
2022/03/28 11:27:23;;;;;;;10.73;5.90;;;20.70;93.90;;;;;;5031573;28;20474;-70
2022/03/28 11:29:49;;;;;;;7.07;6.27;;;20.50;92.70;;;;;;5030238;28;21020;-68
2022/03/28 11:32:18;;;;;;;6.60;5.47;;;20.40;92.70;;;;;;5027438;28;20489;-69
2022/03/28 11:34:54;;;;;;;10.70;8.43;;;20.40;93.30;;;;;;5018103;28;20497;-67
2022/03/28 11:37:26;;;;;;;35.63;22.20;;;20.50;92.00;;;;;;5029954;28;20461;-69
2022/03/28 11:39:53;;;;;;;43.80;29.83;;;20.70;91.10;;;;;;5025575;28;20514;-70
2022/03/28 11:42:25;;;;;;;30.13;19.23;;;20.80;91.40;;;;;;5042867;28;20491;-67
2022/03/28 11:44:51;;;;;;;13.27;9.07;;;21.00;90.10;;;;;;5027726;28;20467;-69
2022/03/28 11:47:18;;;;;;;11.40;8.57;;;21.10;89.50;;;;;;5027789;28;20470;-69
2022/03/28 11:49:54;;;;;;;10.53;6.47;;;21.30;89.20;;;;;;5037582;28;20458;-69
2022/03/28 11:52:21;;;;;;;8.40;6.50;;;21.60;89.40;;;;;;5030612;28;20503;-68
2022/03/28 11:54:47;;;;;;;6.83;5.70;;;21.70;88.00;;;;;;5038349;28;20449;-69
2022/03/28 12:00:16;;;;;;;7.33;6.20;;;21.90;86.90;;;;;;5027436;28;20216;-70
2022/03/28 12:02:56;;;;;;;8.67;5.80;;;21.80;88.30;;;;;;5030824;28;21299;-70
2022/03/28 12:05:24;;;;;;;7.87;5.60;;;21.80;88.00;;;;;;5027322;28;20462;-68
2022/03/28 12:07:50;;;;;;;7.27;5.50;;;22.00;87.60;;;;;;4998170;28;20490;-70
2022/03/28 12:10:16;;;;;;;6.37;5.00;;;22.10;86.60;;;;;;5029369;28;20469;-68
2022/03/28 12:12:43;;;;;;;6.27;5.47;;;22.20;86.90;;;;;;5035097;28;20301;-69
2022/03/28 12:15:12;;;;;;;6.67;5.80;;;22.40;83.60;;;;;;5029504;28;20228;-68
2022/03/28 12:17:38;;;;;;;6.90;5.00;;;22.30;84.80;;;;;;5030703;28;20500;-70
2022/03/28 12:20:06;;;;;;;6.57;4.90;;;22.50;82.80;;;;;;5026152;28;20443;-70
2022/03/28 12:22:47;;;;;;;10.33;6.13;;;22.60;81.60;;;;;;5021549;28;20288;-70
2022/03/28 12:25:38;;;;;;;6.40;4.80;;;22.20;78.60;;;;;;5018581;28;20470;-70
2022/03/28 12:28:33;;;;;;;11.13;5.67;;;22.30;83.70;;;;;;5036542;28;21283;-70
2022/03/28 12:31:00;;;;;;;6.20;4.83;;;22.30;82.40;;;;;;5024767;28;20579;-69
2022/03/28 12:33:32;;;;;;;5.67;5.07;;;22.60;81.30;;;;;;5020440;28;20539;-69
2022/03/28 12:36:07;;;;;;;7.30;5.50;;;22.80;80.60;;;;;;5023707;28;20521;-71
2022/03/28 12:38:41;;;;;;;5.70;5.07;;;22.90;81.10;;;;;;5031273;28;20943;-69
2022/03/28 12:41:13;;;;;;;6.77;4.83;;;22.90;81.20;;;;;;5028649;28;20450;-68
2022/03/28 12:43:45;;;;;;;6.00;5.00;;;22.90;80.50;;;;;;5025034;28;20478;-69
2022/03/28 12:46:11;;;;;;;9.57;5.40;;;23.20;78.20;;;;;;5031789;28;20487;-67
2022/03/28 12:48:49;;;;;;;7.40;4.70;;;23.40;77.30;;;;;;5016839;28;20450;-68